PHTO/ITO METAR and TAF weather

Enter ICAO airport designator
Station Type Date Time Source
PHTO METAR 2019/04/20 22:53 UTC NOAA

PHTO 202253Z 12010KT 10SM FEW030 27/18 A3013 RMK AO2 SLP202 T02720183


Station Type Date Time Source
PHTO Decoded METAR 2019/04/20 22:53 UTC NOAA

HILO INTERNATIONAL AIRPORT, HI, United States (PHTO) 19-43N 155-03W 12M
Apr 20, 2019 - 06:53 PM EDT / 2019.04.20 2253 UTC
Wind: from the ESE (120 degrees) at 12 MPH (10 KT):0
Visibility: 10 mile(s):0
Sky conditions: mostly clear
Temperature: 81.0 F (27.2 C)
Dew Point: 64.9 F (18.3 C)
Relative Humidity: 58%
Pressure (altimeter): 30.13 in. Hg (1020 hPa)
ob: PHTO 202253Z 12010KT 10SM FEW030 27/18 A3013 RMK AO2 SLP202 T02720183
cycle: 23

Station Type Date Time Source
PHTO TAF 2019/04/20 18:42 UTC NOAA

TAF PHTO 201738Z 2018/2118 VRB05KT P6SM VCSH SCT025 SCT050
FM202100 10009KT P6SM VCSH SCT025 BKN050
FM210600 VRB05KT 6SM SHRA BKN025 OVC050

Example: see airport list